createdAt,value
2023-03-23T15:58:12.969Z,16.86
2023-03-23T16:00:44.737Z,17.36
2023-03-23T16:03:16.641Z,17.62
2023-03-23T16:05:43.356Z,17.23
2023-03-23T16:08:12.182Z,17.69
2023-03-23T16:10:38.729Z,17.52
2023-03-23T16:13:06.174Z,17.42
2023-03-23T16:15:32.762Z,17.07
2023-03-23T16:17:59.174Z,16.40
2023-03-23T16:20:26.115Z,16.28
2023-03-23T16:22:52.701Z,16.06
2023-03-23T16:25:19.194Z,15.79
2023-03-23T16:27:54.504Z,15.51
2023-03-23T16:30:24.759Z,15.38
2023-03-23T16:32:51.703Z,15.35
2023-03-23T16:35:19.479Z,15.31
2023-03-23T16:37:48.724Z,15.28
2023-03-23T16:40:16.727Z,15.16
2023-03-23T16:42:43.309Z,15.13
2023-03-23T16:45:10.900Z,15.13
2023-03-23T16:47:37.693Z,15.16
2023-03-23T16:50:06.991Z,15.16
2023-03-23T16:52:34.204Z,15.07
2023-03-23T16:55:14.084Z,15.00
2023-03-23T16:57:43.753Z,15.01
2023-03-23T17:00:16.470Z,15.02
2023-03-23T17:02:43.631Z,14.95
2023-03-23T17:05:14.123Z,14.91
2023-03-23T17:07:42.084Z,14.88
2023-03-23T17:10:10.907Z,14.87
2023-03-23T17:12:37.581Z,14.86
2023-03-23T17:15:04.855Z,14.80
2023-03-23T17:17:31.915Z,14.73
2023-03-23T17:19:58.708Z,14.67
2023-03-23T17:22:25.748Z,14.62
2023-03-23T17:24:52.376Z,14.59
2023-03-23T17:27:20.720Z,14.60
2023-03-23T17:29:47.686Z,14.53
2023-03-23T17:32:14.724Z,14.48
2023-03-23T17:34:41.568Z,14.44
2023-03-23T17:37:08.529Z,14.36
2023-03-23T17:39:43.179Z,14.34
2023-03-23T17:42:13.701Z,14.34
2023-03-23T17:44:42.974Z,14.28
2023-03-23T17:47:09.870Z,14.23
2023-03-23T17:49:36.529Z,14.23
2023-03-23T17:52:03.130Z,14.21
2023-03-23T17:54:30.953Z,14.17
2023-03-23T17:56:58.795Z,14.16
2023-03-23T17:59:25.904Z,14.11
2023-03-23T18:01:53.486Z,14.04
2023-03-23T18:04:20.379Z,14.04
2023-03-23T18:06:46.908Z,14.02
2023-03-23T18:09:13.412Z,13.99
2023-03-23T18:11:39.962Z,13.95
2023-03-23T18:14:06.470Z,13.90
2023-03-23T18:16:33.088Z,13.86
2023-03-23T18:18:59.643Z,13.89
2023-03-23T18:21:27.028Z,13.83
2023-03-23T18:23:59.277Z,13.83
2023-03-23T18:26:27.756Z,13.76
2023-03-23T18:28:55.526Z,13.74
2023-03-23T18:31:22.434Z,13.78
2023-03-23T18:33:50.776Z,13.81
2023-03-23T18:36:20.115Z,13.81
2023-03-23T18:38:47.172Z,13.80
2023-03-23T18:41:14.377Z,13.76
2023-03-23T18:43:44.395Z,13.71
2023-03-23T18:46:13.942Z,13.70
2023-03-23T18:48:41.614Z,13.63
2023-03-23T18:51:08.984Z,13.56
2023-03-23T18:53:36.691Z,13.42
2023-03-23T18:56:06.236Z,13.24
2023-03-23T18:58:32.819Z,13.13
2023-03-23T19:01:03.952Z,13.02
2023-03-23T19:03:31.008Z,12.93
2023-03-23T19:05:59.347Z,12.86
2023-03-23T19:08:27.313Z,12.79
2023-03-23T19:11:01.000Z,12.74
2023-03-23T19:13:34.114Z,12.70
2023-03-23T19:16:01.025Z,12.65
2023-03-23T19:18:28.348Z,12.57
2023-03-23T19:21:13.365Z,12.54
2023-03-23T19:23:41.744Z,12.50
2023-03-23T19:26:08.217Z,12.47
2023-03-23T19:29:09.692Z,12.48
2023-03-23T19:31:24.885Z,12.45
2023-03-23T19:33:52.894Z,12.42
2023-03-23T19:36:21.245Z,12.41
2023-03-23T19:38:47.784Z,12.42
2023-03-23T19:41:15.556Z,12.40
2023-03-23T19:43:43.210Z,12.38
2023-03-23T19:46:11.094Z,12.31
2023-03-23T19:48:39.700Z,12.29
2023-03-23T19:51:07.605Z,12.29
2023-03-23T19:53:34.085Z,12.29
2023-03-23T19:56:02.860Z,12.26
2023-03-23T19:58:31.468Z,12.26
2023-03-23T20:01:00.427Z,12.22
2023-03-23T20:03:27.093Z,12.17
2023-03-23T20:06:01.291Z,12.15
2023-03-23T20:08:27.871Z,12.12
2023-03-23T20:11:03.030Z,12.10
2023-03-23T20:13:29.711Z,12.07
2023-03-23T20:15:58.773Z,12.06
2023-03-23T20:21:04.984Z,12.05
2023-03-23T20:23:32.200Z,12.02
2023-03-23T20:26:05.827Z,11.98
2023-03-23T20:28:32.882Z,11.97
2023-03-23T20:31:18.988Z,11.94
2023-03-23T20:33:48.398Z,11.90
2023-03-23T20:36:35.151Z,11.90
2023-03-23T20:39:08.099Z,11.85
2023-03-23T20:41:38.807Z,11.84
2023-03-23T20:44:07.623Z,11.83
2023-03-23T20:46:34.974Z,11.83
2023-03-23T20:49:02.173Z,11.84
2023-03-23T20:51:28.716Z,11.81
2023-03-23T20:53:55.652Z,11.78
2023-03-23T20:56:24.361Z,11.80
2023-03-23T20:58:51.968Z,11.77
2023-03-23T21:01:18.457Z,11.75
2023-03-23T21:03:45.723Z,11.75
2023-03-23T21:06:12.279Z,11.75
2023-03-23T21:08:43.540Z,11.72
2023-03-23T21:11:17.817Z,11.73
2023-03-23T21:13:45.369Z,11.72
2023-03-23T21:16:13.075Z,11.68
2023-03-23T21:18:40.725Z,11.65
2023-03-23T21:21:10.310Z,11.68
2023-03-23T21:23:46.692Z,11.67
2023-03-23T21:26:19.540Z,11.64
2023-03-23T21:28:47.474Z,11.64
2023-03-23T21:31:15.068Z,11.62
2023-03-23T21:33:41.715Z,11.61
2023-03-23T21:36:08.434Z,11.59
2023-03-23T21:38:35.366Z,11.57
2023-03-23T21:41:07.834Z,11.53
2023-03-23T21:43:34.754Z,11.55
2023-03-23T21:46:05.168Z,11.54
2023-03-23T21:48:32.971Z,11.51
2023-03-23T21:51:08.590Z,11.49
2023-03-23T21:53:37.017Z,11.50
2023-03-23T21:56:06.569Z,11.49
2023-03-23T21:58:33.862Z,11.48
2023-03-23T22:01:02.143Z,11.48
2023-03-23T22:03:32.070Z,11.50
2023-03-23T22:06:05.420Z,11.51
2023-03-23T22:08:31.849Z,11.51
2023-03-23T22:11:03.409Z,11.51
2023-03-23T22:13:32.081Z,11.50
2023-03-23T22:16:00.754Z,11.52
2023-03-23T22:18:27.657Z,11.51
2023-03-23T22:20:54.299Z,11.51
2023-03-23T22:23:20.832Z,11.49
2023-03-23T22:25:47.287Z,11.50
2023-03-23T22:28:13.792Z,11.47
2023-03-23T22:30:43.784Z,11.43
2023-03-23T22:33:13.507Z,11.42
2023-03-23T22:35:39.950Z,11.39
2023-03-23T22:38:06.925Z,11.36
2023-03-23T22:40:33.433Z,11.33
2023-03-23T22:43:00.040Z,11.31
2023-03-23T22:45:27.792Z,11.27
2023-03-23T22:47:54.215Z,11.25
2023-03-23T22:50:21.532Z,11.26
2023-03-23T22:52:48.186Z,11.26
2023-03-23T22:55:14.718Z,11.19
2023-03-23T22:57:41.210Z,11.16
2023-03-23T23:00:14.111Z,11.15
2023-03-23T23:02:49.514Z,11.12
2023-03-23T23:05:16.535Z,11.10
2023-03-23T23:07:42.946Z,11.09
2023-03-23T23:10:12.029Z,11.09
2023-03-23T23:12:39.134Z,11.09
2023-03-23T23:15:06.024Z,11.09
2023-03-23T23:17:32.493Z,11.07
2023-03-23T23:19:59.743Z,11.08
2023-03-23T23:22:26.511Z,11.06
2023-03-23T23:24:53.012Z,11.06
2023-03-23T23:27:19.550Z,11.05
2023-03-23T23:29:45.953Z,11.05
2023-03-23T23:32:12.970Z,11.08
2023-03-23T23:34:41.393Z,11.07
2023-03-23T23:37:09.071Z,11.06
2023-03-23T23:39:38.351Z,11.08
2023-03-23T23:42:05.475Z,11.07
2023-03-23T23:44:32.296Z,11.09
2023-03-23T23:46:58.862Z,11.10
2023-03-23T23:49:27.660Z,11.12
2023-03-23T23:51:55.285Z,11.10
2023-03-23T23:54:29.789Z,11.11
2023-03-23T23:56:59.860Z,11.11
2023-03-23T23:59:27.041Z,11.12
